sensor_id;sensor_type;location;lat;lon;timestamp;P1;durP1;ratioP1;P2;durP2;ratioP2
19566;SDS011;9930;49.240;8.548;2023-12-22T00:00:03;1.10;;;0.95;;
19566;SDS011;9930;49.240;8.548;2023-12-22T00:02:30;1.23;;;0.90;;
19566;SDS011;9930;49.240;8.548;2023-12-22T00:04:58;1.52;;;1.08;;
19566;SDS011;9930;49.240;8.548;2023-12-22T00:07:24;1.23;;;0.95;;
19566;SDS011;9930;49.240;8.548;2023-12-22T00:09:53;1.35;;;0.93;;
19566;SDS011;9930;49.240;8.548;2023-12-22T00:12:18;1.27;;;1.10;;
19566;SDS011;9930;49.240;8.548;2023-12-22T00:14:44;1.75;;;1.05;;
19566;SDS011;9930;49.240;8.548;2023-12-22T00:17:10;1.17;;;1.00;;
19566;SDS011;9930;49.240;8.548;2023-12-22T00:19:38;0.98;;;0.80;;
19566;SDS011;9930;49.240;8.548;2023-12-22T00:22:08;1.13;;;0.90;;
19566;SDS011;9930;49.240;8.548;2023-12-22T00:24:36;0.93;;;0.85;;
19566;SDS011;9930;49.240;8.548;2023-12-22T00:27:09;0.88;;;0.88;;
19566;SDS011;9930;49.240;8.548;2023-12-22T00:29:37;1.00;;;1.00;;
19566;SDS011;9930;49.240;8.548;2023-12-22T00:32:04;1.17;;;0.93;;
19566;SDS011;9930;49.240;8.548;2023-12-22T00:34:31;1.15;;;1.05;;
19566;SDS011;9930;49.240;8.548;2023-12-22T00:36:59;2.05;;;1.17;;
19566;SDS011;9930;49.240;8.548;2023-12-22T00:39:29;1.58;;;1.00;;
19566;SDS011;9930;49.240;8.548;2023-12-22T00:41:56;1.75;;;1.60;;
19566;SDS011;9930;49.240;8.548;2023-12-22T00:44:22;1.98;;;1.20;;
19566;SDS011;9930;49.240;8.548;2023-12-22T00:46:48;0.90;;;0.90;;
19566;SDS011;9930;49.240;8.548;2023-12-22T00:49:16;1.27;;;1.17;;
19566;SDS011;9930;49.240;8.548;2023-12-22T00:51:44;1.90;;;1.23;;
19566;SDS011;9930;49.240;8.548;2023-12-22T00:54:12;1.52;;;1.10;;
19566;SDS011;9930;49.240;8.548;2023-12-22T00:56:41;1.10;;;1.00;;
19566;SDS011;9930;49.240;8.548;2023-12-22T00:59:07;1.52;;;1.23;;
19566;SDS011;9930;49.240;8.548;2023-12-22T01:01:34;2.28;;;1.58;;
19566;SDS011;9930;49.240;8.548;2023-12-22T01:04:03;2.45;;;2.20;;
19566;SDS011;9930;49.240;8.548;2023-12-22T01:06:28;3.85;;;2.45;;
19566;SDS011;9930;49.240;8.548;2023-12-22T01:08:54;3.17;;;2.30;;
19566;SDS011;9930;49.240;8.548;2023-12-22T01:11:20;2.08;;;1.80;;
19566;SDS011;9930;49.240;8.548;2023-12-22T01:13:48;1.63;;;1.52;;
19566;SDS011;9930;49.240;8.548;2023-12-22T01:16:15;1.50;;;1.38;;
19566;SDS011;9930;49.240;8.548;2023-12-22T01:18:43;1.50;;;1.40;;
19566;SDS011;9930;49.240;8.548;2023-12-22T01:21:11;2.28;;;1.55;;
19566;SDS011;9930;49.240;8.548;2023-12-22T01:23:39;2.20;;;1.60;;
19566;SDS011;9930;49.240;8.548;2023-12-22T01:26:05;2.17;;;1.55;;
19566;SDS011;9930;49.240;8.548;2023-12-22T01:28:34;3.25;;;1.80;;
19566;SDS011;9930;49.240;8.548;2023-12-22T01:31:00;2.75;;;1.60;;
19566;SDS011;9930;49.240;8.548;2023-12-22T01:33:26;2.10;;;1.45;;
19566;SDS011;9930;49.240;8.548;2023-12-22T01:35:52;1.75;;;1.20;;
19566;SDS011;9930;49.240;8.548;2023-12-22T01:38:17;1.58;;;1.30;;
19566;SDS011;9930;49.240;8.548;2023-12-22T01:40:48;1.35;;;1.15;;
19566;SDS011;9930;49.240;8.548;2023-12-22T01:43:16;3.42;;;1.38;;
19566;SDS011;9930;49.240;8.548;2023-12-22T01:45:46;2.92;;;1.55;;
19566;SDS011;9930;49.240;8.548;2023-12-22T01:48:18;2.58;;;1.40;;
19566;SDS011;9930;49.240;8.548;2023-12-22T01:50:44;3.47;;;1.15;;
19566;SDS011;9930;49.240;8.548;2023-12-22T01:53:15;4.03;;;1.42;;
19566;SDS011;9930;49.240;8.548;2023-12-22T01:55:45;3.05;;;1.70;;
19566;SDS011;9930;49.240;8.548;2023-12-22T01:58:14;3.45;;;1.50;;
19566;SDS011;9930;49.240;8.548;2023-12-22T02:00:43;3.17;;;1.30;;
19566;SDS011;9930;49.240;8.548;2023-12-22T02:03:11;1.77;;;1.20;;
19566;SDS011;9930;49.240;8.548;2023-12-22T02:05:42;2.38;;;1.30;;
19566;SDS011;9930;49.240;8.548;2023-12-22T02:08:09;2.03;;;1.35;;
19566;SDS011;9930;49.240;8.548;2023-12-22T02:10:39;2.08;;;1.30;;
19566;SDS011;9930;49.240;8.548;2023-12-22T02:13:07;1.90;;;1.20;;
19566;SDS011;9930;49.240;8.548;2023-12-22T02:15:37;2.17;;;1.27;;
19566;SDS011;9930;49.240;8.548;2023-12-22T02:18:12;2.75;;;1.33;;
19566;SDS011;9930;49.240;8.548;2023-12-22T02:20:52;2.08;;;1.20;;
19566;SDS011;9930;49.240;8.548;2023-12-22T02:23:18;3.22;;;1.40;;
19566;SDS011;9930;49.240;8.548;2023-12-22T02:25:44;1.50;;;1.20;;
19566;SDS011;9930;49.240;8.548;2023-12-22T02:28:13;2.28;;;1.30;;
19566;SDS011;9930;49.240;8.548;2023-12-22T02:30:57;1.88;;;1.25;;
19566;SDS011;9930;49.240;8.548;2023-12-22T02:33:42;3.40;;;1.70;;
19566;SDS011;9930;49.240;8.548;2023-12-22T02:36:12;4.00;;;1.40;;
19566;SDS011;9930;49.240;8.548;2023-12-22T02:38:43;3.70;;;1.85;;
19566;SDS011;9930;49.240;8.548;2023-12-22T02:41:13;2.53;;;1.40;;
19566;SDS011;9930;49.240;8.548;2023-12-22T02:43:39;6.15;;;1.83;;
19566;SDS011;9930;49.240;8.548;2023-12-22T02:46:13;2.40;;;1.33;;
19566;SDS011;9930;49.240;8.548;2023-12-22T02:48:40;1.65;;;1.20;;
19566;SDS011;9930;49.240;8.548;2023-12-22T02:51:08;1.88;;;1.13;;
19566;SDS011;9930;49.240;8.548;2023-12-22T02:53:34;2.50;;;1.40;;
19566;SDS011;9930;49.240;8.548;2023-12-22T02:56:02;3.65;;;1.40;;
19566;SDS011;9930;49.240;8.548;2023-12-22T02:58:28;3.85;;;1.80;;
19566;SDS011;9930;49.240;8.548;2023-12-22T03:00:56;4.28;;;1.60;;
19566;SDS011;9930;49.240;8.548;2023-12-22T03:03:24;4.55;;;1.35;;
19566;SDS011;9930;49.240;8.548;2023-12-22T03:05:52;3.15;;;1.45;;
19566;SDS011;9930;49.240;8.548;2023-12-22T03:08:20;3.60;;;1.67;;
19566;SDS011;9930;49.240;8.548;2023-12-22T03:10:45;2.25;;;1.30;;
19566;SDS011;9930;49.240;8.548;2023-12-22T03:13:11;2.85;;;1.50;;
19566;SDS011;9930;49.240;8.548;2023-12-22T03:15:41;4.00;;;1.60;;
19566;SDS011;9930;49.240;8.548;2023-12-22T03:18:09;4.05;;;1.83;;
19566;SDS011;9930;49.240;8.548;2023-12-22T03:20:35;2.70;;;1.55;;
19566;SDS011;9930;49.240;8.548;2023-12-22T03:23:03;2.88;;;1.50;;
19566;SDS011;9930;49.240;8.548;2023-12-22T03:25:31;3.65;;;1.55;;
19566;SDS011;9930;49.240;8.548;2023-12-22T03:27:57;4.40;;;1.55;;
19566;SDS011;9930;49.240;8.548;2023-12-22T03:30:25;2.50;;;1.63;;
19566;SDS011;9930;49.240;8.548;2023-12-22T03:32:50;2.55;;;1.60;;
19566;SDS011;9930;49.240;8.548;2023-12-22T03:35:16;2.65;;;1.50;;
19566;SDS011;9930;49.240;8.548;2023-12-22T03:37:44;2.35;;;1.33;;
19566;SDS011;9930;49.240;8.548;2023-12-22T03:40:10;2.80;;;1.77;;
19566;SDS011;9930;49.240;8.548;2023-12-22T03:42:39;2.58;;;1.60;;
19566;SDS011;9930;49.240;8.548;2023-12-22T03:45:05;3.08;;;1.35;;
19566;SDS011;9930;49.240;8.548;2023-12-22T03:47:31;4.78;;;1.75;;
19566;SDS011;9930;49.240;8.548;2023-12-22T03:49:59;3.58;;;1.65;;
19566;SDS011;9930;49.240;8.548;2023-12-22T03:52:24;5.38;;;1.75;;
19566;SDS011;9930;49.240;8.548;2023-12-22T03:54:50;2.10;;;1.33;;
19566;SDS011;9930;49.240;8.548;2023-12-22T03:57:18;3.08;;;1.40;;
19566;SDS011;9930;49.240;8.548;2023-12-22T03:59:44;2.40;;;1.30;;
19566;SDS011;9930;49.240;8.548;2023-12-22T04:02:10;1.45;;;1.02;;
19566;SDS011;9930;49.240;8.548;2023-12-22T04:04:38;1.60;;;0.93;;
19566;SDS011;9930;49.240;8.548;2023-12-22T04:07:05;1.25;;;0.90;;
19566;SDS011;9930;49.240;8.548;2023-12-22T04:09:31;1.00;;;0.90;;
19566;SDS011;9930;49.240;8.548;2023-12-22T04:11:56;1.75;;;1.05;;
19566;SDS011;9930;49.240;8.548;2023-12-22T04:14:24;1.33;;;0.93;;
19566;SDS011;9930;49.240;8.548;2023-12-22T04:16:55;1.45;;;1.13;;
19566;SDS011;9930;49.240;8.548;2023-12-22T04:19:21;1.60;;;1.15;;
19566;SDS011;9930;49.240;8.548;2023-12-22T04:21:47;2.03;;;1.17;;
19566;SDS011;9930;49.240;8.548;2023-12-22T04:24:12;2.28;;;1.20;;
19566;SDS011;9930;49.240;8.548;2023-12-22T04:26:39;2.85;;;1.13;;
19566;SDS011;9930;49.240;8.548;2023-12-22T04:29:07;3.20;;;1.38;;
19566;SDS011;9930;49.240;8.548;2023-12-22T04:31:38;1.42;;;1.30;;
19566;SDS011;9930;49.240;8.548;2023-12-22T04:34:05;5.03;;;1.60;;
19566;SDS011;9930;49.240;8.548;2023-12-22T04:36:34;3.85;;;1.75;;
19566;SDS011;9930;49.240;8.548;2023-12-22T04:39:00;1.98;;;1.30;;
19566;SDS011;9930;49.240;8.548;2023-12-22T04:41:26;3.53;;;1.73;;
19566;SDS011;9930;49.240;8.548;2023-12-22T04:43:52;2.10;;;1.30;;
19566;SDS011;9930;49.240;8.548;2023-12-22T04:46:18;1.88;;;1.13;;
19566;SDS011;9930;49.240;8.548;2023-12-22T04:48:43;1.88;;;1.55;;
19566;SDS011;9930;49.240;8.548;2023-12-22T04:51:09;2.50;;;1.30;;
19566;SDS011;9930;49.240;8.548;2023-12-22T04:53:35;3.70;;;1.67;;
19566;SDS011;9930;49.240;8.548;2023-12-22T04:56:04;1.55;;;1.20;;
19566;SDS011;9930;49.240;8.548;2023-12-22T04:58:31;2.33;;;1.30;;
19566;SDS011;9930;49.240;8.548;2023-12-22T05:00:56;3.20;;;1.50;;
19566;SDS011;9930;49.240;8.548;2023-12-22T05:03:24;2.45;;;1.52;;
19566;SDS011;9930;49.240;8.548;2023-12-22T05:05:52;2.10;;;1.40;;
19566;SDS011;9930;49.240;8.548;2023-12-22T05:08:18;2.13;;;1.23;;
19566;SDS011;9930;49.240;8.548;2023-12-22T05:10:44;1.55;;;1.15;;
19566;SDS011;9930;49.240;8.548;2023-12-22T05:13:12;3.30;;;1.50;;
19566;SDS011;9930;49.240;8.548;2023-12-22T05:15:40;3.28;;;1.45;;
19566;SDS011;9930;49.240;8.548;2023-12-22T05:18:06;1.35;;;1.20;;
19566;SDS011;9930;49.240;8.548;2023-12-22T05:20:34;2.53;;;1.35;;
19566;SDS011;9930;49.240;8.548;2023-12-22T05:23:00;3.42;;;1.25;;
19566;SDS011;9930;49.240;8.548;2023-12-22T05:25:27;2.90;;;1.52;;
19566;SDS011;9930;49.240;8.548;2023-12-22T05:27:55;3.08;;;1.60;;
19566;SDS011;9930;49.240;8.548;2023-12-22T05:30:22;3.55;;;1.63;;
19566;SDS011;9930;49.240;8.548;2023-12-22T05:32:47;2.38;;;1.52;;
19566;SDS011;9930;49.240;8.548;2023-12-22T05:35:13;4.50;;;2.03;;
19566;SDS011;9930;49.240;8.548;2023-12-22T05:37:39;3.60;;;1.77;;
19566;SDS011;9930;49.240;8.548;2023-12-22T05:40:05;3.70;;;1.58;;
19566;SDS011;9930;49.240;8.548;2023-12-22T05:42:35;2.47;;;1.40;;
19566;SDS011;9930;49.240;8.548;2023-12-22T05:45:00;3.38;;;1.60;;
19566;SDS011;9930;49.240;8.548;2023-12-22T05:47:28;4.18;;;1.40;;
19566;SDS011;9930;49.240;8.548;2023-12-22T05:49:54;5.38;;;1.67;;
19566;SDS011;9930;49.240;8.548;2023-12-22T05:52:21;3.28;;;1.58;;
19566;SDS011;9930;49.240;8.548;2023-12-22T05:54:47;5.32;;;1.88;;
19566;SDS011;9930;49.240;8.548;2023-12-22T05:57:13;3.88;;;1.73;;
19566;SDS011;9930;49.240;8.548;2023-12-22T05:59:42;6.03;;;2.22;;
19566;SDS011;9930;49.240;8.548;2023-12-22T06:02:08;3.50;;;1.80;;
19566;SDS011;9930;49.240;8.548;2023-12-22T06:04:35;5.35;;;1.92;;
19566;SDS011;9930;49.240;8.548;2023-12-22T06:07:00;4.38;;;1.83;;
19566;SDS011;9930;49.240;8.548;2023-12-22T06:09:26;4.18;;;1.83;;
19566;SDS011;9930;49.240;8.548;2023-12-22T06:11:52;4.38;;;2.10;;
19566;SDS011;9930;49.240;8.548;2023-12-22T06:14:18;4.97;;;2.20;;
19566;SDS011;9930;49.240;8.548;2023-12-22T06:16:46;5.50;;;2.20;;
19566;SDS011;9930;49.240;8.548;2023-12-22T06:19:11;4.90;;;2.05;;
19566;SDS011;9930;49.240;8.548;2023-12-22T06:21:38;5.18;;;2.08;;
19566;SDS011;9930;49.240;8.548;2023-12-22T06:24:07;4.03;;;1.88;;
19566;SDS011;9930;49.240;8.548;2023-12-22T06:26:35;4.50;;;2.45;;
19566;SDS011;9930;49.240;8.548;2023-12-22T06:29:01;5.65;;;2.70;;
19566;SDS011;9930;49.240;8.548;2023-12-22T06:31:31;3.83;;;1.90;;
19566;SDS011;9930;49.240;8.548;2023-12-22T06:33:57;4.00;;;1.80;;
19566;SDS011;9930;49.240;8.548;2023-12-22T06:36:27;5.13;;;2.15;;
19566;SDS011;9930;49.240;8.548;2023-12-22T06:38:55;6.40;;;2.40;;
19566;SDS011;9930;49.240;8.548;2023-12-22T06:41:24;4.00;;;2.25;;
19566;SDS011;9930;49.240;8.548;2023-12-22T06:43:52;4.80;;;2.22;;
19566;SDS011;9930;49.240;8.548;2023-12-22T06:46:18;4.30;;;2.08;;
19566;SDS011;9930;49.240;8.548;2023-12-22T06:48:48;5.07;;;1.90;;
19566;SDS011;9930;49.240;8.548;2023-12-22T06:53:48;2.35;;;1.60;;
19566;SDS011;9930;49.240;8.548;2023-12-22T06:56:19;4.03;;;1.80;;
19566;SDS011;9930;49.240;8.548;2023-12-22T06:58:49;2.45;;;1.55;;
19566;SDS011;9930;49.240;8.548;2023-12-22T07:01:18;3.72;;;1.70;;
19566;SDS011;9930;49.240;8.548;2023-12-22T07:03:51;3.53;;;1.63;;
19566;SDS011;9930;49.240;8.548;2023-12-22T07:06:18;4.15;;;1.85;;
19566;SDS011;9930;49.240;8.548;2023-12-22T07:11:41;3.13;;;1.50;;
19566;SDS011;9930;49.240;8.548;2023-12-22T07:14:09;2.15;;;1.65;;
19566;SDS011;9930;49.240;8.548;2023-12-22T07:16:39;3.78;;;1.55;;
19566;SDS011;9930;49.240;8.548;2023-12-22T07:19:05;2.60;;;1.30;;
19566;SDS011;9930;49.240;8.548;2023-12-22T07:21:36;2.42;;;1.58;;
19566;SDS011;9930;49.240;8.548;2023-12-22T07:24:04;2.55;;;1.58;;
19566;SDS011;9930;49.240;8.548;2023-12-22T07:26:31;2.25;;;1.23;;
19566;SDS011;9930;49.240;8.548;2023-12-22T07:28:56;3.20;;;1.50;;
19566;SDS011;9930;49.240;8.548;2023-12-22T07:31:24;3.97;;;1.60;;
19566;SDS011;9930;49.240;8.548;2023-12-22T07:33:51;1.70;;;1.30;;
19566;SDS011;9930;49.240;8.548;2023-12-22T07:36:17;3.63;;;1.70;;
19566;SDS011;9930;49.240;8.548;2023-12-22T07:38:43;4.45;;;1.75;;
19566;SDS011;9930;49.240;8.548;2023-12-22T07:41:09;2.72;;;1.50;;
19566;SDS011;9930;49.240;8.548;2023-12-22T07:43:35;2.47;;;1.80;;
19566;SDS011;9930;49.240;8.548;2023-12-22T07:46:04;2.13;;;1.50;;
19566;SDS011;9930;49.240;8.548;2023-12-22T07:48:32;4.07;;;1.70;;
19566;SDS011;9930;49.240;8.548;2023-12-22T07:50:58;3.53;;;1.50;;
19566;SDS011;9930;49.240;8.548;2023-12-22T07:53:23;3.53;;;1.70;;
19566;SDS011;9930;49.240;8.548;2023-12-22T07:55:51;3.60;;;1.70;;
19566;SDS011;9930;49.240;8.548;2023-12-22T07:58:17;3.53;;;1.50;;
19566;SDS011;9930;49.240;8.548;2023-12-22T08:00:44;4.10;;;2.00;;
19566;SDS011;9930;49.240;8.548;2023-12-22T08:03:11;4.90;;;2.30;;
19566;SDS011;9930;49.240;8.548;2023-12-22T08:05:39;4.38;;;2.13;;
19566;SDS011;9930;49.240;8.548;2023-12-22T08:08:07;3.67;;;2.10;;
19566;SDS011;9930;49.240;8.548;2023-12-22T08:10:34;4.82;;;2.50;;
19566;SDS011;9930;49.240;8.548;2023-12-22T08:13:03;4.03;;;2.60;;
19566;SDS011;9930;49.240;8.548;2023-12-22T08:15:29;3.42;;;2.88;;
19566;SDS011;9930;49.240;8.548;2023-12-22T08:17:57;5.50;;;3.25;;
19566;SDS011;9930;49.240;8.548;2023-12-22T08:20:23;6.72;;;3.92;;
19566;SDS011;9930;49.240;8.548;2023-12-22T08:22:49;5.10;;;3.55;;
19566;SDS011;9930;49.240;8.548;2023-12-22T08:25:17;5.93;;;3.92;;
19566;SDS011;9930;49.240;8.548;2023-12-22T08:27:48;5.07;;;3.63;;
19566;SDS011;9930;49.240;8.548;2023-12-22T08:30:17;5.60;;;4.03;;
19566;SDS011;9930;49.240;8.548;2023-12-22T08:32:42;5.32;;;3.33;;
19566;SDS011;9930;49.240;8.548;2023-12-22T08:35:12;6.90;;;3.35;;
19566;SDS011;9930;49.240;8.548;2023-12-22T08:37:38;6.30;;;2.97;;
19566;SDS011;9930;49.240;8.548;2023-12-22T08:40:05;4.95;;;2.72;;
19566;SDS011;9930;49.240;8.548;2023-12-22T08:42:31;5.05;;;2.85;;
19566;SDS011;9930;49.240;8.548;2023-12-22T08:44:57;5.47;;;2.53;;
19566;SDS011;9930;49.240;8.548;2023-12-22T08:47:23;4.15;;;2.65;;
19566;SDS011;9930;49.240;8.548;2023-12-22T08:49:50;4.32;;;2.72;;
19566;SDS011;9930;49.240;8.548;2023-12-22T08:52:15;4.57;;;2.90;;
19566;SDS011;9930;49.240;8.548;2023-12-22T08:54:41;5.65;;;2.95;;
19566;SDS011;9930;49.240;8.548;2023-12-22T08:57:07;7.45;;;3.38;;
19566;SDS011;9930;49.240;8.548;2023-12-22T08:59:37;7.63;;;3.47;;
19566;SDS011;9930;49.240;8.548;2023-12-22T09:02:04;6.60;;;3.35;;
19566;SDS011;9930;49.240;8.548;2023-12-22T09:04:31;5.15;;;3.17;;
19566;SDS011;9930;49.240;8.548;2023-12-22T09:06:59;7.70;;;3.28;;
19566;SDS011;9930;49.240;8.548;2023-12-22T09:09:24;7.68;;;3.35;;
19566;SDS011;9930;49.240;8.548;2023-12-22T09:11:52;6.82;;;3.40;;
19566;SDS011;9930;49.240;8.548;2023-12-22T09:14:18;7.50;;;3.40;;
19566;SDS011;9930;49.240;8.548;2023-12-22T09:16:46;8.20;;;2.83;;
19566;SDS011;9930;49.240;8.548;2023-12-22T09:19:14;8.07;;;3.65;;
19566;SDS011;9930;49.240;8.548;2023-12-22T09:21:42;8.75;;;3.28;;
19566;SDS011;9930;49.240;8.548;2023-12-22T09:24:09;8.20;;;2.88;;
19566;SDS011;9930;49.240;8.548;2023-12-22T09:26:37;6.63;;;2.83;;
19566;SDS011;9930;49.240;8.548;2023-12-22T09:29:04;10.30;;;3.38;;
19566;SDS011;9930;49.240;8.548;2023-12-22T09:31:30;8.07;;;3.08;;
19566;SDS011;9930;49.240;8.548;2023-12-22T09:33:57;9.13;;;3.10;;
19566;SDS011;9930;49.240;8.548;2023-12-22T09:36:23;7.28;;;3.15;;
19566;SDS011;9930;49.240;8.548;2023-12-22T09:38:49;8.13;;;3.10;;
19566;SDS011;9930;49.240;8.548;2023-12-22T09:41:16;9.23;;;3.28;;
19566;SDS011;9930;49.240;8.548;2023-12-22T09:43:47;7.88;;;2.90;;
19566;SDS011;9930;49.240;8.548;2023-12-22T09:46:14;7.65;;;2.78;;
19566;SDS011;9930;49.240;8.548;2023-12-22T09:48:43;8.90;;;2.92;;
19566;SDS011;9930;49.240;8.548;2023-12-22T09:51:10;7.35;;;2.70;;
19566;SDS011;9930;49.240;8.548;2023-12-22T09:53:39;7.18;;;3.10;;
19566;SDS011;9930;49.240;8.548;2023-12-22T09:56:07;7.43;;;3.30;;
19566;SDS011;9930;49.240;8.548;2023-12-22T09:58:34;7.93;;;3.40;;
19566;SDS011;9930;49.240;8.548;2023-12-22T10:01:02;7.78;;;3.10;;
19566;SDS011;9930;49.240;8.548;2023-12-22T10:03:31;9.98;;;3.38;;
19566;SDS011;9930;49.240;8.548;2023-12-22T10:06:03;8.40;;;3.13;;
19566;SDS011;9930;49.240;8.548;2023-12-22T10:08:32;6.57;;;3.30;;
19566;SDS011;9930;49.240;8.548;2023-12-22T10:11:03;8.70;;;3.58;;
19566;SDS011;9930;49.240;8.548;2023-12-22T10:13:30;9.60;;;3.50;;
19566;SDS011;9930;49.240;8.548;2023-12-22T10:15:58;7.45;;;3.92;;
19566;SDS011;9930;49.240;8.548;2023-12-22T10:18:27;7.82;;;3.35;;
19566;SDS011;9930;49.240;8.548;2023-12-22T10:20:56;8.68;;;3.15;;
19566;SDS011;9930;49.240;8.548;2023-12-22T10:23:21;7.10;;;3.05;;
19566;SDS011;9930;49.240;8.548;2023-12-22T10:25:50;7.20;;;2.85;;
19566;SDS011;9930;49.240;8.548;2023-12-22T10:28:16;7.03;;;3.25;;
19566;SDS011;9930;49.240;8.548;2023-12-22T10:30:49;12.30;;;3.33;;
19566;SDS011;9930;49.240;8.548;2023-12-22T10:33:15;8.15;;;3.65;;
19566;SDS011;9930;49.240;8.548;2023-12-22T10:35:43;7.75;;;3.60;;
19566;SDS011;9930;49.240;8.548;2023-12-22T10:38:11;7.68;;;3.25;;
19566;SDS011;9930;49.240;8.548;2023-12-22T10:40:39;10.07;;;3.60;;
19566;SDS011;9930;49.240;8.548;2023-12-22T10:43:10;10.18;;;3.80;;
19566;SDS011;9930;49.240;8.548;2023-12-22T10:45:40;8.80;;;3.50;;
19566;SDS011;9930;49.240;8.548;2023-12-22T10:48:06;11.48;;;3.83;;
19566;SDS011;9930;49.240;8.548;2023-12-22T10:50:32;6.65;;;3.08;;
19566;SDS011;9930;49.240;8.548;2023-12-22T10:52:58;8.30;;;3.00;;
19566;SDS011;9930;49.240;8.548;2023-12-22T10:55:25;5.15;;;2.63;;
19566;SDS011;9930;49.240;8.548;2023-12-22T10:57:58;5.47;;;2.97;;
19566;SDS011;9930;49.240;8.548;2023-12-22T11:00:31;9.57;;;2.88;;
19566;SDS011;9930;49.240;8.548;2023-12-22T11:03:00;6.80;;;2.70;;
19566;SDS011;9930;49.240;8.548;2023-12-22T11:05:31;10.00;;;2.97;;
19566;SDS011;9930;49.240;8.548;2023-12-22T11:07:59;8.07;;;3.03;;
19566;SDS011;9930;49.240;8.548;2023-12-22T11:10:28;6.28;;;2.65;;
19566;SDS011;9930;49.240;8.548;2023-12-22T11:13:03;9.60;;;3.05;;
19566;SDS011;9930;49.240;8.548;2023-12-22T11:15:29;6.25;;;2.75;;
19566;SDS011;9930;49.240;8.548;2023-12-22T11:18:00;6.82;;;3.10;;
19566;SDS011;9930;49.240;8.548;2023-12-22T11:20:28;6.38;;;3.13;;
19566;SDS011;9930;49.240;8.548;2023-12-22T11:22:57;7.07;;;2.88;;
19566;SDS011;9930;49.240;8.548;2023-12-22T11:25:25;7.50;;;3.00;;
19566;SDS011;9930;49.240;8.548;2023-12-22T11:27:54;5.85;;;2.80;;
19566;SDS011;9930;49.240;8.548;2023-12-22T11:30:24;7.47;;;2.65;;
19566;SDS011;9930;49.240;8.548;2023-12-22T11:32:50;4.93;;;2.60;;
19566;SDS011;9930;49.240;8.548;2023-12-22T11:35:19;9.50;;;3.10;;
19566;SDS011;9930;49.240;8.548;2023-12-22T11:37:49;8.43;;;2.83;;
19566;SDS011;9930;49.240;8.548;2023-12-22T11:40:15;4.47;;;2.53;;
19566;SDS011;9930;49.240;8.548;2023-12-22T11:42:43;7.97;;;3.10;;
19566;SDS011;9930;49.240;8.548;2023-12-22T11:45:15;4.97;;;2.50;;
19566;SDS011;9930;49.240;8.548;2023-12-22T11:47:44;5.90;;;2.88;;
19566;SDS011;9930;49.240;8.548;2023-12-22T11:50:21;7.22;;;3.10;;
19566;SDS011;9930;49.240;8.548;2023-12-22T11:53:16;6.28;;;2.53;;
19566;SDS011;9930;49.240;8.548;2023-12-22T11:55:56;7.78;;;2.97;;
19566;SDS011;9930;49.240;8.548;2023-12-22T12:01:16;3.45;;;2.17;;
19566;SDS011;9930;49.240;8.548;2023-12-22T12:08:55;3.28;;;1.90;;
19566;SDS011;9930;49.240;8.548;2023-12-22T12:14:21;4.30;;;2.70;;
19566;SDS011;9930;49.240;8.548;2023-12-22T12:17:03;4.38;;;2.53;;
19566;SDS011;9930;49.240;8.548;2023-12-22T12:19:38;3.67;;;2.17;;
19566;SDS011;9930;49.240;8.548;2023-12-22T12:22:07;2.55;;;2.10;;
19566;SDS011;9930;49.240;8.548;2023-12-22T12:24:37;4.70;;;2.60;;
19566;SDS011;9930;49.240;8.548;2023-12-22T12:27:04;3.88;;;1.92;;
19566;SDS011;9930;49.240;8.548;2023-12-22T12:29:34;3.33;;;2.17;;
19566;SDS011;9930;49.240;8.548;2023-12-22T12:32:06;3.40;;;2.40;;
19566;SDS011;9930;49.240;8.548;2023-12-22T12:34:40;3.50;;;2.30;;
19566;SDS011;9930;49.240;8.548;2023-12-22T12:37:08;2.47;;;1.90;;
19566;SDS011;9930;49.240;8.548;2023-12-22T12:39:37;2.47;;;1.90;;
19566;SDS011;9930;49.240;8.548;2023-12-22T12:42:07;2.17;;;1.60;;
19566;SDS011;9930;49.240;8.548;2023-12-22T12:44:33;1.88;;;1.42;;
19566;SDS011;9930;49.240;8.548;2023-12-22T12:47:10;2.83;;;1.90;;
19566;SDS011;9930;49.240;8.548;2023-12-22T12:49:41;2.97;;;1.60;;
19566;SDS011;9930;49.240;8.548;2023-12-22T12:52:12;2.20;;;1.60;;
19566;SDS011;9930;49.240;8.548;2023-12-22T12:54:43;2.35;;;1.40;;
19566;SDS011;9930;49.240;8.548;2023-12-22T12:57:18;2.15;;;1.83;;
19566;SDS011;9930;49.240;8.548;2023-12-22T12:59:47;2.33;;;2.08;;
19566;SDS011;9930;49.240;8.548;2023-12-22T13:02:18;1.98;;;1.70;;
19566;SDS011;9930;49.240;8.548;2023-12-22T13:04:45;1.70;;;1.60;;
19566;SDS011;9930;49.240;8.548;2023-12-22T13:07:11;2.17;;;1.70;;
19566;SDS011;9930;49.240;8.548;2023-12-22T13:09:48;2.08;;;1.85;;
19566;SDS011;9930;49.240;8.548;2023-12-22T13:12:13;2.13;;;1.60;;
19566;SDS011;9930;49.240;8.548;2023-12-22T13:14:44;1.90;;;1.73;;
19566;SDS011;9930;49.240;8.548;2023-12-22T13:17:11;2.17;;;1.70;;
19566;SDS011;9930;49.240;8.548;2023-12-22T13:19:37;1.77;;;1.60;;
19566;SDS011;9930;49.240;8.548;2023-12-22T13:22:05;1.52;;;1.42;;
19566;SDS011;9930;49.240;8.548;2023-12-22T13:24:32;1.70;;;1.40;;
19566;SDS011;9930;49.240;8.548;2023-12-22T13:27:01;1.48;;;1.38;;
19566;SDS011;9930;49.240;8.548;2023-12-22T13:29:33;1.90;;;1.75;;
19566;SDS011;9930;49.240;8.548;2023-12-22T13:32:19;1.85;;;1.60;;
19566;SDS011;9930;49.240;8.548;2023-12-22T13:34:50;3.55;;;2.25;;
19566;SDS011;9930;49.240;8.548;2023-12-22T13:37:18;4.03;;;3.63;;
19566;SDS011;9930;49.240;8.548;2023-12-22T13:39:45;9.70;;;7.57;;
19566;SDS011;9930;49.240;8.548;2023-12-22T13:42:15;4.35;;;3.88;;
19566;SDS011;9930;49.240;8.548;2023-12-22T13:44:45;4.20;;;3.80;;
19566;SDS011;9930;49.240;8.548;2023-12-22T13:47:15;8.25;;;7.53;;
19566;SDS011;9930;49.240;8.548;2023-12-22T13:49:42;5.22;;;4.82;;
19566;SDS011;9930;49.240;8.548;2023-12-22T13:55:15;2.13;;;2.00;;
19566;SDS011;9930;49.240;8.548;2023-12-22T13:57:50;2.10;;;2.00;;
19566;SDS011;9930;49.240;8.548;2023-12-22T14:00:33;1.38;;;1.30;;
19566;SDS011;9930;49.240;8.548;2023-12-22T14:03:01;2.15;;;1.92;;
19566;SDS011;9930;49.240;8.548;2023-12-22T14:05:30;1.50;;;1.40;;
19566;SDS011;9930;49.240;8.548;2023-12-22T14:07:59;1.30;;;1.20;;
19566;SDS011;9930;49.240;8.548;2023-12-22T14:10:25;1.33;;;1.23;;
19566;SDS011;9930;49.240;8.548;2023-12-22T14:12:51;3.25;;;2.90;;
19566;SDS011;9930;49.240;8.548;2023-12-22T14:15:17;2.70;;;2.30;;
19566;SDS011;9930;49.240;8.548;2023-12-22T14:17:51;1.42;;;1.33;;
19566;SDS011;9930;49.240;8.548;2023-12-22T14:20:21;1.30;;;1.20;;
19566;SDS011;9930;49.240;8.548;2023-12-22T14:22:47;1.35;;;1.00;;
19566;SDS011;9930;49.240;8.548;2023-12-22T14:25:12;1.10;;;1.00;;
19566;SDS011;9930;49.240;8.548;2023-12-22T14:27:38;1.30;;;1.20;;
19566;SDS011;9930;49.240;8.548;2023-12-22T14:30:05;1.58;;;1.00;;
19566;SDS011;9930;49.240;8.548;2023-12-22T14:32:31;1.10;;;1.00;;
19566;SDS011;9930;49.240;8.548;2023-12-22T14:34:56;0.90;;;0.90;;
19566;SDS011;9930;49.240;8.548;2023-12-22T14:37:25;1.13;;;1.00;;
19566;SDS011;9930;49.240;8.548;2023-12-22T14:39:54;0.90;;;0.90;;
19566;SDS011;9930;49.240;8.548;2023-12-22T14:42:20;1.08;;;1.00;;
19566;SDS011;9930;49.240;8.548;2023-12-22T14:44:46;0.90;;;0.90;;
19566;SDS011;9930;49.240;8.548;2023-12-22T14:47:12;1.10;;;1.00;;
19566;SDS011;9930;49.240;8.548;2023-12-22T14:49:37;1.42;;;1.33;;
19566;SDS011;9930;49.240;8.548;2023-12-22T14:52:06;1.17;;;1.08;;
19566;SDS011;9930;49.240;8.548;2023-12-22T14:54:36;1.10;;;1.10;;
19566;SDS011;9930;49.240;8.548;2023-12-22T14:57:01;1.67;;;1.08;;
19566;SDS011;9930;49.240;8.548;2023-12-22T14:59:28;1.95;;;1.10;;
19566;SDS011;9930;49.240;8.548;2023-12-22T15:01:54;1.10;;;1.00;;
19566;SDS011;9930;49.240;8.548;2023-12-22T15:04:21;1.58;;;1.48;;
19566;SDS011;9930;49.240;8.548;2023-12-22T15:06:50;14.98;;;12.63;;
19566;SDS011;9930;49.240;8.548;2023-12-22T15:09:16;7.38;;;6.40;;
19566;SDS011;9930;49.240;8.548;2023-12-22T15:11:43;7.53;;;6.75;;
19566;SDS011;9930;49.240;8.548;2023-12-22T15:14:10;4.75;;;4.35;;
19566;SDS011;9930;49.240;8.548;2023-12-22T15:16:43;3.42;;;3.20;;
19566;SDS011;9930;49.240;8.548;2023-12-22T15:19:12;3.78;;;3.47;;
19566;SDS011;9930;49.240;8.548;2023-12-22T15:21:40;8.75;;;7.82;;
19566;SDS011;9930;49.240;8.548;2023-12-22T15:24:09;9.75;;;7.65;;